Latest Coastal Weather Observations for Bundaberg

IDQ60701

Issued at 11:31 pm EST Wednesday 29 July 2015 (issued every 10 minutes, with the page automatically refreshed every 10 minutes)

About coastal observations | Map of coastal stations | Coastal observations for QLD | Marine services | Other Formats
Station Details ID: 039128 Name: BUNDABERG AERO Lat: -24.91 Lon: 152.32 Height: 30.82 m
Data from the previous 72 hours. | See also: Recent months at Bundaberg
Date/Time
EST
Temp

°C
Wind Pressure Rain
since 9am
mm
Weather Cloud Vis
km
Sea
Height
m
Swell
Dir
 
Speed
knots
Gust
knots
hPa Trend Height
m
Period
s
Dir
29/11:30pm 13.4 SSE 6 9 1027.9 - 0.0 - - 10 - - - -
29/11:00pm 13.6 SSE 7 10 1028.0 - 0.0 - - 10 - - - -
29/10:30pm 13.8 S 8 12 1028.2 - 0.0 - - 10 - - - -
29/10:00pm 13.8 S 7 10 1028.4 - 0.0 - - 10 - - - -
29/09:30pm 13.4 S 7 9 1028.3 - 0.0 - - 10 - - - -
29/09:00pm 13.8 S 7 10 1028.4 - 0.0 - - 10 - - - -
29/08:30pm 14.2 SSE 7 10 1028.3 - 0.0 - - 10 - - - -
29/08:00pm 14.2 SSE 6 8 1028.2 - 0.0 - - 10 - - - -
29/07:30pm 15.2 SSE 7 9 1027.9 - 0.0 - - 10 - - - -
29/07:00pm 15.1 SE 7 8 1027.7 - 0.0 - - 10 - - - -
29/06:30pm 15.8 SE 8 10 1027.5 - 0.0 - - 10 - - - -
29/06:00pm 16.3 SE 9 11 1027.1 - 0.0 - - 10 - - - -
29/05:30pm 17.8 SE 11 16 1026.9 - 0.0 - - 10 - - - -
29/05:00pm 18.9 SE 12 16 1026.7 - 0.0 - - 10 - - - -
29/04:30pm 19.8 ESE 14 18 1026.5 - 0.0 - - 10 - - - -
29/04:00pm 21.0 ESE 13 17 1026.3 - 0.0 - - 10 - - - -
29/03:30pm 21.3 ESE 15 19 1026.1 - 0.0 - - 10 - - - -
29/03:00pm 21.7 ESE 14 18 1026.3 - 0.0 - Mostly clear 10 - - - -
29/02:30pm 22.1 ESE 15 19 1026.3 - 0.0 - Partly cloudy 10 - - - -
29/02:00pm 21.1 SE 11 15 1026.6 - 0.0 - Partly cloudy 10 - - - -
29/01:30pm 22.0 SE 13 18 1026.8 - 0.0 - Partly cloudy 10 - - - -
29/01:00pm 20.4 SE 13 17 1027.3 - 0.0 - Partly cloudy 10 - - - -
29/12:30pm 21.9 ESE 13 18 1027.8 - 0.0 - Partly cloudy 10 - - - -
29/12:00pm 20.8 SE 13 17 1028.3 - 0.0 - Cloudy 10 - - - -
29/11:30am 20.9 SSE 13 20 1028.7 - 0.0 - Partly cloudy 10 - - - -
29/11:00am 20.1 SE 14 20 1029.3 - 0.0 - Partly cloudy 10 - - - -
29/10:30am 19.9 SSE 13 18 1029.8 - 0.0 - - 10 - - - -
29/10:00am 18.6 SSE 12 18 1030.0 - 0.0 - - 10 - - - -
29/09:30am 18.0 SSE 11 18 1030.2 - 0.0 - - 10 - - - -
29/09:00am 17.0 S 11 16 1030.3 - 0.0 - - 10 - - - -
29/08:30am 15.4 S 10 15 1030.2 - 0.0 - - 10 - - - -
29/08:00am 14.3 S 7 11 1029.9 - 0.0 - - 10 - - - -
29/07:30am 12.7 S 7 10 1029.7 - 0.0 - - 10 - - - -
29/07:00am 11.5 S 7 9 1029.4 - 0.0 - Partly cloudy 10 - - - -
29/06:30am 11.5 S 6 8 1029.1 - 0.0 - Partly cloudy 10 - - - -
29/06:00am 11.7 S 7 10 1028.9 - 0.0 - Cloudy 10 - - - -
29/05:30am 11.4 S 8 11 1028.8 - 0.0 - Partly cloudy 10 - - - -
29/05:00am 10.8 S 7 10 1028.5 - 0.0 - Partly cloudy 10 - - - -
29/04:30am 10.7 S 6 9 1028.3 - 0.0 - - 10 - - - -
29/04:00am 11.0 S 7 10 1028.3 - 0.0 - - 10 - - - -
29/03:30am 10.8 SSW 7 9 1028.5 - 0.0 - - 10 - - - -
29/03:00am 11.0 S 8 11 1028.5 - 0.0 - - 10 - - - -
29/02:30am 11.1 S 8 11 1028.8 - 0.0 - - 10 - - - -
29/02:00am 11.0 S 7 10 1028.6 - 0.0 - - 10 - - - -
29/01:30am 11.5 S 6 10 1028.7 - 0.0 - - 10 - - - -
29/01:00am 11.6 S 7 8 1028.8 - 0.0 - - 10 - - - -
29/12:30am 11.7 S 6 8 1029.0 - 0.0 - - 10 - - - -
29/12:00am 12.0 S 6 9 1028.9 - 0.0 - - 10 - - - -
 
Date/Time
EST
Temp

°C
Wind Pressure Rain
since 9am
mm
Weather Cloud Vis
km
Sea
Height
m
Swell
Dir
 
Speed
knots
Gust
knots
hPa Trend Height
m
Period
s
Dir
28/11:30pm 12.7 S 6 9 1029.0 - 0.0 - Partly cloudy 10 - - - -
28/11:00pm 12.7 SSE 6 8 1029.1 - 0.0 - Partly cloudy 10 - - - -
28/10:30pm 12.8 SSE 6 7 1029.1 - 0.0 - Partly cloudy 10 - - - -
28/10:00pm 13.1 SSE 6 8 1029.2 - 0.0 - Partly cloudy 10 - - - -
28/09:30pm 12.5 SSE 5 8 1029.3 - 0.0 - - 10 - - - -
28/09:00pm 13.7 SSE 6 9 1029.3 - 0.0 - - 10 - - - -
28/08:30pm 14.6 SSE 8 11 1029.0 - 0.0 - - 10 - - - -
28/08:00pm 14.7 SSE 7 9 1029.0 - 0.0 - - 10 - - - -
28/07:30pm 15.0 SE 7 9 1028.7 - 0.0 - - 10 - - - -
28/07:00pm 15.5 SSE 6 7 1028.5 - 0.0 - - 10 - - - -
28/06:30pm 15.7 SE 7 9 1028.0 - 0.0 - - 10 - - - -
28/06:00pm 17.4 SE 12 15 1027.5 - 0.0 - Mostly clear 10 - - - -
28/05:30pm 18.0 ESE 11 16 1027.1 - 0.0 - - 10 - - - -
28/05:00pm 18.7 ESE 14 18 1026.7 - 0.0 - - 10 - - - -
28/04:30pm 19.3 ESE 16 21 1026.4 - 0.0 - Partly cloudy 10 - - - -
28/04:00pm 19.6 ESE 18 22 1026.1 - 0.0 - Partly cloudy 10 - - - -
28/03:30pm 20.4 ESE 15 22 1025.9 - 0.0 - Partly cloudy 10 - - - -
28/03:00pm 20.6 ESE 17 23 1025.8 - 0.0 - Partly cloudy 10 - - - -
28/02:30pm 21.1 ESE 14 18 1025.7 - 0.0 - Partly cloudy 10 - - - -
28/02:00pm 21.0 SE 16 21 1025.8 - 0.0 - Partly cloudy 10 - - - -
28/01:30pm 21.2 ESE 16 21 1026.0 - 0.0 - Partly cloudy 10 - - - -
28/01:00pm 21.9 ESE 15 22 1026.5 - 0.0 - Partly cloudy 10 - - - -
28/12:30pm 20.5 SE 12 17 1027.0 - 0.0 - Partly cloudy 10 - - - -
28/12:00pm 21.0 SSE 11 15 1027.3 - 0.0 - Cloudy 10 - - - -
28/11:30am 20.2 SSE 10 18 1027.8 - 0.0 - Partly cloudy 10 - - - -
28/11:00am 18.8 S 10 15 1028.0 - 0.0 - Partly cloudy 10 - - - -
28/10:30am 17.4 S 10 13 1028.4 - 0.0 - - 10 - - - -
28/10:00am 16.7 SSW 11 14 1028.8 - 0.0 - - 10 - - - -
28/09:30am 16.2 S 10 15 1028.7 - 0.0 - - 10 - - - -
28/09:00am 15.2 SSW 10 14 1028.5 - 0.0 - - 10 - - - -
28/08:30am 14.6 SSW 9 15 1028.4 - 0.0 - - 10 - - - -
28/08:00am 12.9 SSW 8 11 1028.1 - 0.0 - - 10 - - - -
28/07:30am 11.7 SSW 7 10 1028.0 - 0.0 - - 10 - - - -
28/07:00am 11.1 SSW 9 13 1027.5 - 0.0 - - 10 - - - -
28/06:30am 11.2 SW 7 10 1027.2 - 0.0 - - 10 - - - -
28/06:00am 11.4 SW 9 12 1026.9 - 0.0 - Cloudy 10 - - - -
28/05:30am 11.4 SW 7 11 1026.7 - 0.0 - - 10 - - - -
28/05:00am 11.8 SSW 8 11 1026.4 - 0.0 - - 10 - - - -
28/04:30am 11.7 SW 8 11 1026.3 - 0.0 - - 10 - - - -
28/04:00am 11.8 SW 7 10 1026.3 - 0.0 - - 10 - - - -
28/03:30am 12.0 SW 6 9 1026.1 - 0.0 - - 10 - - - -
28/03:00am 12.3 SW 8 12 1026.1 - 0.0 - - 10 - - - -
28/02:30am 12.7 SW 7 12 1026.2 - 0.0 - - 10 - - - -
28/02:00am 13.1 SW 7 10 1026.0 - 0.0 - - 10 - - - -
28/01:30am 13.6 SW 7 10 1026.0 - 0.0 - - 10 - - - -
28/01:00am 14.2 SSW 9 13 1026.1 - 0.0 - - 10 - - - -
28/12:30am 14.6 SW 9 13 1026.1 - 0.0 - - 10 - - - -
28/12:00am 14.8 SSW 7 10 1026.0 - 0.0 - - 10 - - - -
 
Date/Time
EST
Temp

°C
Wind Pressure Rain
since 9am
mm
Weather Cloud Vis
km
Sea
Height
m
Swell
Dir
 
Speed
knots
Gust
knots
hPa Trend Height
m
Period
s
Dir
27/11:30pm 15.4 SW 7 11 1025.9 - 0.0 - - 10 - - - -
27/11:00pm 16.2 SW 8 11 1026.1 - 0.0 - - 10 - - - -
27/10:30pm 16.8 SW 6 10 1026.1 - 0.0 - - 10 - - - -
27/10:00pm 17.0 SW 6 9 1025.9 - 0.0 - - 10 - - - -
27/09:30pm 17.2 SW 5 7 1025.9 - 0.0 - - 10 - - - -
27/09:00pm 17.9 SSW 6 7 1025.7 - 0.0 - - 10 - - - -
27/08:30pm 18.7 SSW 6 8 1025.2 - 0.0 - - 10 - - - -
27/08:00pm 19.0 SSW 7 10 1024.9 - 0.0 - - 10 - - - -
27/07:30pm 19.7 SW 7 9 1024.5 - 0.0 - - 10 - - - -
27/07:00pm 20.2 SW 7 10 1024.1 - 0.0 - - 10 - - - -
27/06:30pm 20.5 SW 7 10 1023.5 - 0.0 - - 10 - - - -
27/06:00pm 21.2 SW 7 10 1023.0 - 0.0 - - 10 - - - -
27/05:30pm 22.0 SW 8 11 1022.7 - 0.0 - - 10 - - - -
27/05:00pm 22.7 SW 8 11 1022.2 - 0.0 - - 10 - - - -
27/04:30pm 23.4 SW 8 13 1021.8 - 0.0 - - 10 - - - -
27/04:00pm 24.0 SW 9 13 1021.4 - 0.0 - - 10 - - - -
27/03:30pm 24.5 SSW 11 14 1021.1 - 0.0 - - 10 - - - -
27/03:00pm 25.1 SSW 9 15 1020.8 - 0.0 - - 10 - - - -
27/02:30pm 25.5 SSW 11 15 1021.0 - 0.0 - - 10 - - - -
27/02:00pm 25.2 SW 11 17 1021.1 - 0.0 - - 10 - - - -
27/01:30pm 25.1 SW 10 15 1021.4 - 0.0 - - 10 - - - -
27/01:00pm 25.2 SSW 9 15 1021.8 - 0.0 - - 10 - - - -
27/12:30pm 24.7 SSW 8 11 1022.3 - 0.0 - - 10 - - - -
27/12:00pm 24.0 SSW 8 12 1022.8 - 0.0 - - 10 - - - -
27/11:30am 23.1 SSW 10 13 1023.4 - 0.0 - - 10 - - - -
27/11:00am 22.4 SSW 8 11 1024.1 - 0.0 - - 10 - - - -
27/10:30am 21.9 SSW 9 12 1024.5 - 0.0 - Partly cloudy 10 - - - -
27/10:00am 22.2 SSW 8 12 1024.8 - 0.0 - Partly cloudy 10 - - - -
27/09:30am 20.7 SSW 7 10 1025.1 - 0.0 - Partly cloudy 10 - - - -
27/09:00am 20.8 SSW 9 14 1025.0 - 0.0 - Partly cloudy 10 - - - -
27/08:30am 19.4 SW 7 11 1024.8 - 0.0 - Partly cloudy 10 - - - -
27/08:00am 19.1 SW 8 12 1024.6 - 0.0 - Cloudy 10 - - - -
27/07:30am 18.9 SW 6 9 1024.1 - 0.0 - Cloudy 10 - - - -
27/07:00am 18.7 SW 6 8 1023.9 - 0.0 - Cloudy 10 - - - -
27/06:30am 18.8 SW 9 12 1023.3 - 0.0 - Cloudy 10 - - - -
27/06:00am 18.3 WSW 6 9 1023.0 - 0.0 - Mostly cloudy 10 - - - -
27/05:30am 16.9 WSW 5 7 1022.6 - 0.0 - Partly cloudy 10 - - - -
27/05:00am 17.5 WSW 5 6 1022.3 - 0.0 - Partly cloudy 10 - - - -
27/04:30am 17.1 W 3 5 1022.0 - 0.0 - Partly cloudy 10 - - - -
27/04:00am 17.7 WNW 4 5 1022.0 - 0.0 - Cloudy 10 - - - -
27/03:30am 17.8 WNW 3 4 1021.9 - 0.0 - Partly cloudy 10 - - - -
27/03:00am 17.7 WNW 4 5 1022.0 - 0.0 - Mostly cloudy 10 - - - -
27/02:30am 17.3 NW 4 5 1021.7 - 0.0 - Partly cloudy 10 - - - -
27/02:00am 17.9 WNW 5 6 1021.7 - 0.0 - Partly cloudy 10 - - - -
27/01:30am 17.7 WNW 4 6 1021.7 - 0.0 - Partly cloudy 10 - - - -
27/01:04am 18.0 NNW 4 5 1021.7 - 0.0 - Partly cloudy 10 - - - -
27/01:00am 18.0 NNW 4 5 1021.7 - 0.0 - Partly cloudy 10 - - - -
27/12:30am 17.3 CALM 0 0 1021.7 - 0.0 - Partly cloudy 7 - - - -
27/12:14am 17.3 SSW 1 4 1021.8 - 0.0 - - 5 - - - -
27/12:00am 18.1 SSW 4 6 1021.8 - 0.0 - Mostly clear 10 - - - -

Other Formats:

Comma delimited format used in spreadsheet applications
http://www.bom.gov.au/fwo/IDQ60701/IDQ60701.94387.axf

JavaScript Object Notation format (JSON) in row-major order
http://www.bom.gov.au/fwo/IDQ60701/IDQ60701.94387.json